Weather History for KBAX - January, 2013

Change the Weather History Date:

Tuesday, January 8, 2013

  Actual Average (KP58) Record (KP58)
Temperature  
Mean Temperature 31 °F -  
Max Temperature 35 °F 30 °F 57 °F (2008)
Min Temperature 27 °F 20 °F 6 °F (2015)
Degree Days  
Heating Degree Days 34    
Moisture  
Dew Point 24 °F    
Average Humidity 77    
Maximum Humidity 83    
Minimum Humidity 69    
Precipitation  
Precipitation 0.00 in - - ()
Sea Level Pressure  
Sea Level Pressure 30.15 in    
Wind  
Wind Speed 11 mph (SSW)    
Max Wind Speed 17 mph    
Max Gust Speed 24 mph    
Visibility 9 miles    
Events      
Averages and records for this station are not official NWS values.
T = Trace of Precipitation, MM = Missing Value Source: NWS Daily Summary

Daily Weather History Graph

Daily Weather History Graph

Search for Another Location

Airport or City:

Trip Planner

Search our weather history database for the weather conditions in past years. The results will help you decide how hot, cold, wet, or windy it might be!

Date:

Astronomy

Jan. 08, 2013 Rise Set
Actual Time 8:05 AM EST 5:12 PM EST
Civil Twilight 7:32 AM EST 5:44 PM EST
Nautical Twilight 6:57 AM EST 6:20 PM EST
Astronomical Twilight 6:22 AM EST 6:55 PM EST
Moon 4:36 AM EST (1/8) 2:14 PM EST (1/8)
Length of Visible Light 10h 12m
Length of Day
9h 07m
Waning Crescent, 14% of the Moon is Illuminated
Jan 8
Waning Crescent
Jan 11
New
Jan 18
First Quarter
Jan 26
Full
Feb 3
Last Quarter

Hourly Weather History & Observations

Time (EST) Temp. Windchill Dew Point Humidity Pressure Visibility Wind Dir Wind Speed Gust Speed Precip Events Conditions
12:14 AM 30.9 °F 19.8 °F 21.9 °F 69% 30.07 in 10.0 mi SW 16.1 mph 23.0 mph N/A   Clear
12:34 AM 31.1 °F 21.4 °F 21.9 °F 69% 30.07 in 10.0 mi SW 12.7 mph 19.6 mph N/A   Clear
12:54 AM 31.1 °F 21.4 °F 22.1 °F 69% 30.07 in 10.0 mi SW 12.7 mph 19.6 mph N/A   Clear
1:13 AM 30.9 °F 20.2 °F 22.1 °F 70% 30.08 in 10.0 mi SW 15.0 mph 19.6 mph N/A   Clear
1:54 AM 30.9 °F 20.7 °F 22.1 °F 70% 30.09 in 10.0 mi SW 13.8 mph 19.6 mph N/A   Clear
2:15 AM 31.1 °F 19.7 °F 22.5 °F 70% 30.09 in 10.0 mi SW 17.3 mph 24.2 mph N/A   Clear
2:34 AM 30.9 °F 21.7 °F 22.5 °F 71% 30.09 in 10.0 mi SW 11.5 mph 21.9 mph N/A   Clear
2:54 AM 30.7 °F 20.4 °F 22.5 °F 71% 30.10 in 10.0 mi SW 13.8 mph 18.4 mph N/A   Clear
3:15 AM 30.7 °F 20.4 °F 22.8 °F 72% 30.10 in 10.0 mi SW 13.8 mph 17.3 mph N/A   Clear
3:34 AM 30.7 °F 20.4 °F 23.0 °F 73% 30.10 in 10.0 mi SW 13.8 mph 21.9 mph N/A   Clear
3:54 AM 30.6 °F 20.2 °F 23.0 °F 74% 30.10 in 10.0 mi SW 13.8 mph 18.4 mph N/A   Clear
4:14 AM 30.6 °F 22.4 °F 23.2 °F 74% 30.10 in 10.0 mi SW 9.2 mph - N/A   Clear
4:34 AM 30.2 °F 20.8 °F 23.0 °F 75% 30.10 in 10.0 mi SW 11.5 mph 17.3 mph N/A   Clear
4:54 AM 29.8 °F 20.9 °F 23.0 °F 76% 30.10 in 10.0 mi SW 10.4 mph 16.1 mph N/A   Clear
5:14 AM 29.3 °F 19.6 °F 22.8 °F 77% 30.10 in 10.0 mi SW 11.5 mph - N/A   Clear
5:34 AM 29.3 °F 20.2 °F 22.8 °F 77% 30.11 in 10.0 mi SW 10.4 mph - N/A   Clear
5:54 AM 29.7 °F 21.3 °F 23.0 °F 76% 30.11 in 10.0 mi SW 9.2 mph - N/A   Clear
6:14 AM 29.7 °F 20.7 °F 23.4 °F 77% 30.11 in 10.0 mi SW 10.4 mph - N/A   Clear
6:34 AM 29.7 °F 20.7 °F 23.4 °F 77% 30.12 in 10.0 mi SW 10.4 mph - N/A   Clear
6:54 AM 29.3 °F 20.2 °F 23.0 °F 77% 30.12 in 10.0 mi SW 10.4 mph - N/A   Clear
7:14 AM 29.3 °F 19.6 °F 23.2 °F 78% 30.13 in 10.0 mi SW 11.5 mph - N/A   Clear
7:34 AM 29.1 °F 21.3 °F 23.0 °F 78% 30.13 in 10.0 mi SW 8.1 mph - N/A   Clear
7:54 AM 28.8 °F 20.9 °F 23.0 °F 79% 30.14 in 10.0 mi SW 8.1 mph - N/A   Clear
8:14 AM 28.6 °F 22.4 °F 23.0 °F 80% 30.15 in 10.0 mi SW 5.8 mph - N/A   Clear
8:34 AM 28.2 °F 20.2 °F 22.8 °F 80% 30.15 in 10.0 mi SW 8.1 mph - N/A   Clear
8:55 AM 27.9 °F 20.6 °F 22.5 °F 80% 30.17 in 10.0 mi SW 6.9 mph - N/A   Clear
9:14 AM 28.0 °F 21.7 °F 22.6 °F 80% 30.17 in 10.0 mi SW 5.8 mph - N/A   Clear
9:34 AM 28.6 °F 20.7 °F 23.0 °F 80% 30.18 in 10.0 mi SW 8.1 mph - N/A   Clear
9:55 AM 28.0 °F 22.8 °F 22.8 °F 81% 30.19 in 10.0 mi SW 4.6 mph - N/A   Clear
10:14 AM 29.5 °F 21.8 °F 23.7 °F 79% 30.19 in 10.0 mi SW 8.1 mph - N/A   Clear
10:34 AM 30.2 °F 23.4 °F 23.9 °F 77% 30.19 in 10.0 mi SW 6.9 mph - N/A   Clear
10:55 AM 30.6 °F 23.1 °F 24.3 °F 77% 30.19 in 10.0 mi SW 8.1 mph - N/A   Clear
11:14 AM 31.1 °F 24.5 °F 24.8 °F 77% 30.19 in 10.0 mi SW 6.9 mph - N/A   Clear
11:34 AM 32.0 °F 24.2 °F 25.3 °F 76% 30.18 in 10.0 mi SW 9.2 mph - N/A   Clear
11:54 AM 32.0 °F 24.2 °F 25.9 °F 78% 30.18 in 10.0 mi SW 9.2 mph - N/A   Clear
12:14 PM 32.9 °F 26.7 °F 26.6 °F 78% 30.18 in 10.0 mi SW 6.9 mph - N/A   Clear
12:34 PM 33.8 °F 29.6 °F 27.1 °F 77% 30.17 in 10.0 mi SW 4.6 mph - N/A   Clear
12:54 PM 34.3 °F 30.2 °F 27.9 °F 77% 30.17 in 10.0 mi SW 4.6 mph - N/A   Clear
1:14 PM 35.1 °F 30.1 °F 28.4 °F 77% 30.17 in 10.0 mi SSW 5.8 mph - N/A   Clear
1:35 PM 35.4 °F 30.5 °F 28.9 °F 77% 30.17 in 10.0 mi SSW 5.8 mph - N/A   Clear
1:54 PM 35.6 °F 31.7 °F 29.3 °F 78% 30.17 in 10.0 mi South 4.6 mph - N/A   Clear
2:14 PM 35.6 °F 32.8 °F 29.3 °F 78% 30.17 in 10.0 mi South 3.5 mph - N/A   Clear
2:54 PM 34.9 °F 29.9 °F 27.5 °F 74% 30.18 in 10.0 mi South 5.8 mph - N/A   Clear
3:14 PM 34.3 °F 27.7 °F 27.5 °F 76% 30.18 in 7.0 mi South 8.1 mph - N/A   Clear
3:35 PM 34.0 °F 27.2 °F 27.7 °F 78% 30.18 in 7.0 mi South 8.1 mph - N/A   Clear
3:54 PM 34.0 °F 28.0 °F 27.7 °F 78% 30.19 in 7.0 mi SSE 6.9 mph - N/A   Clear
4:14 PM 33.8 °F 29.6 °F 27.1 °F 77% 30.19 in 10.0 mi SE 4.6 mph - N/A   Clear
4:34 PM 32.9 °F 27.5 °F 26.6 °F 78% 30.19 in 10.0 mi SSE 5.8 mph - N/A   Clear
4:54 PM 32.0 °F 27.5 °F 26.1 °F 79% 30.19 in 7.0 mi SSE 4.6 mph - N/A   Clear
5:15 PM 31.8 °F 26.2 °F 25.3 °F 77% 30.19 in 7.0 mi SSE 5.8 mph - N/A   Clear
5:34 PM 31.5 °F 25.8 °F 25.0 °F 77% 30.18 in 7.0 mi SSE 5.8 mph - N/A   Clear
5:55 PM 30.9 °F 26.2 °F 24.4 °F 77% 30.18 in 7.0 mi SSE 4.6 mph - N/A   Clear
6:14 PM 30.7 °F 24.9 °F 24.6 °F 78% 30.18 in 7.0 mi SSE 5.8 mph - N/A   Clear
6:34 PM 30.4 °F 23.6 °F 24.6 °F 79% 30.19 in 7.0 mi SSE 6.9 mph - N/A   Clear
6:55 PM 30.7 °F 24.1 °F 24.8 °F 79% 30.18 in 7.0 mi SSE 6.9 mph - N/A   Clear
7:14 PM 31.1 °F 23.7 °F 25.2 °F 79% 30.17 in 7.0 mi SSE 8.1 mph - N/A   Clear
7:34 PM 30.7 °F 23.3 °F 24.8 °F 79% 30.17 in 7.0 mi SSE 8.1 mph - N/A   Clear
7:55 PM 30.4 °F 22.9 °F 24.8 °F 80% 30.17 in 7.0 mi South 8.1 mph - N/A   Clear
8:14 PM 29.8 °F 21.5 °F 24.8 °F 81% 30.16 in 7.0 mi South 9.2 mph - N/A   Clear
8:54 PM 29.8 °F 20.9 °F 25.2 °F 83% 30.15 in 7.0 mi South 10.4 mph - N/A   Clear
9:14 PM 29.7 °F 20.7 °F 24.8 °F 82% 30.15 in 7.0 mi South 10.4 mph - N/A   Clear
9:35 PM 29.5 °F 18.8 °F 24.8 °F 83% 30.14 in 7.0 mi South 13.8 mph - N/A   Clear
9:54 PM 29.3 °F 19.1 °F 24.4 °F 82% 30.13 in 7.0 mi South 12.7 mph - N/A   Clear
10:14 PM 28.9 °F 19.2 °F 24.1 °F 82% 30.14 in 7.0 mi South 11.5 mph - N/A   Clear
10:35 PM 29.1 °F 19.4 °F 24.1 °F 81% 30.14 in 7.0 mi South 11.5 mph - N/A   Clear
10:54 PM 29.3 °F 18.6 °F 24.4 °F 82% 30.13 in 7.0 mi South 13.8 mph - N/A   Clear
11:14 PM 29.3 °F 18.6 °F 24.3 °F 81% 30.14 in 7.0 mi South 13.8 mph - N/A   Clear
11:34 PM 29.1 °F 18.4 °F 24.1 °F 81% 30.13 in 7.0 mi South 13.8 mph - N/A   Clear
11:54 PM 29.3 °F 19.1 °F 24.1 °F 81% 30.12 in 7.0 mi South 12.7 mph - N/A   Clear